Time;durP1;ratioP1;P1;durP2;ratioP2;P2;SDS_P1;SDS_P2;PMS_P1;PMS_P2;Temp;Humidity;BMP_temperature;BMP_pressure;BME280_temperature;BME280_humidity;BME280_pressure;Samples;Min_cycle;Max_cycle;Signal;HPM_P1;HPM_P2
2022/08/01 00:00:34;;;;;;;6.70;3.43;;;;;;;24.85;65.52;98593.94;6097339;23;20155;-88
2022/08/01 00:03:00;;;;;;;5.63;3.40;;;;;;;24.85;65.28;98593.09;6072031;23;20160;-88
2022/08/01 00:05:25;;;;;;;6.10;3.60;;;;;;;24.89;64.96;98589.06;6097022;23;20148;-88
2022/08/01 00:07:51;;;;;;;7.10;3.80;;;;;;;24.94;65.05;98583.97;6096900;23;20211;-88
2022/08/01 00:10:17;;;;;;;7.10;3.70;;;;;;;24.96;64.23;98576.56;6096861;23;20180;-88
2022/08/01 00:12:43;;;;;;;5.80;3.40;;;;;;;25.00;63.77;98588.56;6096920;23;20161;-88
2022/08/01 00:15:12;;;;;;;5.87;3.30;;;;;;;24.99;63.84;98587.75;6071682;23;20156;-89
2022/08/01 00:17:38;;;;;;;6.43;3.70;;;;;;;24.78;64.72;98576.94;6096887;23;20156;-89
2022/08/01 00:20:06;;;;;;;7.80;3.77;;;;;;;24.75;64.79;98573.75;6096900;23;20172;-88
2022/08/01 00:22:32;;;;;;;6.50;3.87;;;;;;;24.69;63.24;98575.31;6096936;23;20149;-88
2022/08/01 00:24:58;;;;;;;6.37;4.10;;;;;;;24.72;62.50;98580.31;6097011;23;20156;-88
2022/08/01 00:27:23;;;;;;;7.03;3.70;;;;;;;24.85;61.07;98582.38;6097534;23;20315;-88
2022/08/01 00:29:49;;;;;;;6.20;3.90;;;;;;;24.88;61.36;98576.66;6097630;23;20176;-88
2022/08/01 00:32:17;;;;;;;5.97;3.40;;;;;;;24.84;63.16;98576.19;6098704;23;20541;-88
2022/08/01 00:34:43;;;;;;;7.70;4.07;;;;;;;24.86;62.72;98576.84;6099352;23;20149;-88
2022/08/01 00:37:08;;;;;;;6.50;3.83;;;;;;;24.91;62.48;98577.13;6098620;23;20152;-88
2022/08/01 00:39:34;;;;;;;8.87;3.87;;;;;;;24.97;62.45;98580.94;6073298;23;20167;-88
2022/08/01 00:42:05;;;;;;;7.50;4.13;;;;;;;24.96;62.50;98580.09;6073645;23;20638;-89
2022/08/01 00:44:30;;;;;;;5.97;3.70;;;;;;;24.89;62.11;98581.84;6098602;23;20141;-89
2022/08/01 00:46:56;;;;;;;5.47;3.50;;;;;;;24.62;59.82;98585.09;6099097;23;20178;-89
2022/08/01 00:49:21;;;;;;;6.73;4.23;;;;;;;24.69;59.13;98577.16;6098868;23;20153;-88
2022/08/01 00:51:48;;;;;;;8.23;3.80;;;;;;;24.60;58.39;98586.31;6098425;23;20985;-89
2022/08/01 00:54:14;;;;;;;5.77;3.70;;;;;;;24.66;57.85;98583.72;6098863;23;20211;-88
2022/08/01 00:56:40;;;;;;;6.23;3.77;;;;;;;24.73;57.68;98581.16;6098822;23;20148;-89
2022/08/01 00:59:07;;;;;;;6.57;3.90;;;;;;;24.63;56.99;98581.44;6073239;23;20156;-89
2022/08/01 01:01:32;;;;;;;5.70;3.43;;;;;;;24.65;57.00;98579.38;6097262;23;20218;-88
2022/08/01 01:03:58;;;;;;;7.07;3.80;;;;;;;24.65;57.63;98583.91;6098397;23;20534;-89
2022/08/01 01:06:52;;;;;;;5.17;3.40;;;;;;;24.87;56.22;98573.13;6073244;23;20168;-89
2022/08/01 01:09:39;;;;;;;5.23;3.57;;;;;;;24.82;56.11;98570.19;6087584;23;20168;-88
2022/08/01 01:12:29;;;;;;;6.40;3.70;;;;;;;24.56;56.19;98575.13;6098719;23;20157;-89
2022/08/01 01:14:59;;;;;;;6.53;4.10;;;;;;;24.49;56.11;98576.88;6098126;23;20144;-88
2022/08/01 01:17:36;;;;;;;4.97;3.43;;;;;;;24.62;56.31;98574.38;6097132;23;20644;-89
2022/08/01 01:20:05;;;;;;;6.73;4.00;;;;;;;24.72;56.54;98574.13;6098278;23;20133;-88
2022/08/01 01:22:51;;;;;;;5.10;3.63;;;;;;;24.72;55.50;98580.31;6098549;23;20204;-88
2022/08/01 01:25:37;;;;;;;5.60;3.30;;;;;;;24.68;56.37;98568.31;6098577;23;20132;-88
2022/08/01 01:28:13;;;;;;;6.53;3.60;;;;;;;24.80;55.44;98566.84;6072990;23;20576;-88
2022/08/01 01:30:42;;;;;;;5.17;3.40;;;;;;;24.73;55.20;98555.19;6098079;23;20259;-88
2022/08/01 01:33:11;;;;;;;5.17;3.50;;;;;;;24.75;55.34;98563.03;6098065;23;20596;-88
2022/08/01 01:35:41;;;;;;;4.57;3.53;;;;;;;24.75;55.85;98558.50;6098068;23;20153;-89
2022/08/01 01:38:22;;;;;;;6.20;4.10;;;;;;;24.78;55.30;98563.53;6098374;23;20137;-88
2022/08/01 01:40:51;;;;;;;7.93;4.07;;;;;;;24.75;55.29;98563.88;6098072;23;20137;-88
2022/08/01 01:43:19;;;;;;;5.40;3.50;;;;;;;24.88;55.09;98561.41;6072652;23;20178;-89
2022/08/01 01:45:45;;;;;;;7.83;4.27;;;;;;;24.96;54.27;98563.16;6097916;23;20207;-89
2022/08/01 01:48:15;;;;;;;6.43;3.70;;;;;;;25.00;54.49;98567.13;6072778;23;20614;-88
2022/08/01 01:50:42;;;;;;;6.70;4.30;;;;;;;24.96;54.16;98563.16;6097823;23;20615;-89
2022/08/01 01:53:10;;;;;;;8.27;3.90;;;;;;;24.95;54.38;98562.31;6098253;23;20157;-88
2022/08/01 01:55:39;;;;;;;7.77;4.27;;;;;;;24.96;54.09;98561.31;6072805;23;20243;-89
2022/08/01 01:58:06;;;;;;;6.43;3.97;;;;;;;24.88;54.35;98555.22;6097836;23;20152;-89
2022/08/01 02:00:33;;;;;;;5.37;3.33;;;;;;;24.98;53.92;98558.44;6098176;23;20152;-88
2022/08/01 02:03:02;;;;;;;7.53;3.83;;;;;;;24.85;54.51;98559.09;6097751;23;20153;-88
2022/08/01 02:05:28;;;;;;;5.43;4.17;;;;;;;24.82;54.25;98554.09;6098435;23;20200;-89
2022/08/01 02:07:55;;;;;;;5.67;3.33;;;;;;;24.79;54.61;98554.47;6097759;23;20160;-88
2022/08/01 02:10:22;;;;;;;5.93;3.60;;;;;;;24.76;54.04;98554.81;6072511;23;20509;-88
2022/08/01 02:12:50;;;;;;;4.83;2.90;;;;;;;24.41;54.54;98558.19;6072445;23;20231;-88
2022/08/01 02:15:18;;;;;;;5.50;3.43;;;;;;;24.36;54.97;98557.91;6097648;23;20239;-89
2022/08/01 02:17:47;;;;;;;5.37;3.20;;;;;;;24.42;54.60;98552.63;6096527;23;20469;-89
2022/08/01 02:20:14;;;;;;;4.60;3.30;;;;;;;24.21;54.98;98555.16;6072573;23;20156;-88
2022/08/01 02:22:48;;;;;;;4.77;3.43;;;;;;;24.13;55.51;98557.94;6097612;23;20160;-89
2022/08/01 02:25:24;;;;;;;6.77;3.47;;;;;;;24.13;55.13;98557.94;6097947;23;20140;-88
2022/08/01 02:27:55;;;;;;;5.63;3.10;;;;;;;24.04;55.39;98563.50;6097891;23;20174;-88
2022/08/01 02:30:24;;;;;;;5.37;3.40;;;;;;;23.96;55.29;98558.19;6097449;23;20168;-89
2022/08/01 02:33:00;;;;;;;5.43;3.50;;;;;;;24.04;54.60;98556.31;6097486;23;20153;-88
2022/08/01 02:35:32;;;;;;;4.13;2.93;;;;;;;24.00;54.84;98554.16;6097888;23;20132;-89
2022/08/01 02:38:00;;;;;;;6.17;3.47;;;;;;;23.99;54.11;98556.00;6097474;23;20152;-89
2022/08/01 02:40:32;;;;;;;4.97;3.07;;;;;;;23.82;54.58;98560.63;6072309;23;20164;-88
2022/08/01 02:43:01;;;;;;;5.73;3.20;;;;;;;23.99;53.85;98556.00;6096037;23;20560;-88
2022/08/01 02:45:26;;;;;;;5.03;3.63;;;;;;;23.82;54.54;98555.28;6097342;23;20161;-89
2022/08/01 02:47:59;;;;;;;6.80;3.53;;;;;;;23.79;54.14;98558.31;6097740;23;20479;-89
2022/08/01 02:50:26;;;;;;;5.40;3.40;;;;;;;23.81;54.16;98545.59;6097706;23;20247;-89
2022/08/01 02:52:54;;;;;;;5.97;3.57;;;;;;;23.84;54.24;98550.63;6097139;23;20152;-89
2022/08/01 02:55:20;;;;;;;4.80;2.83;;;;;;;23.71;54.20;98547.69;6097577;23;20573;-89
2022/08/01 02:57:47;;;;;;;4.77;3.17;;;;;;;23.80;53.99;98556.47;6097627;23;20176;-88
2022/08/01 03:00:17;;;;;;;8.27;4.37;;;;;;;23.90;53.62;98557.06;6097631;23;20215;-88
2022/08/01 03:02:44;;;;;;;4.00;2.80;;;;;;;23.89;53.68;98566.13;6097214;23;20487;-88
2022/08/01 03:05:12;;;;;;;5.30;3.30;;;;;;;24.01;52.80;98555.81;6097180;23;20235;-88
2022/08/01 03:07:40;;;;;;;6.53;3.53;;;;;;;24.12;52.95;98556.28;6097568;23;20236;-88
2022/08/01 03:10:06;;;;;;;5.27;2.90;;;;;;;24.22;52.32;98561.38;6097034;23;20184;-88
2022/08/01 03:12:34;;;;;;;6.50;3.00;;;;;;;24.26;52.10;98568.03;6097523;23;20212;-88
2022/08/01 03:15:02;;;;;;;4.73;3.10;;;;;;;24.34;52.05;98566.09;6097140;23;20149;-88
2022/08/01 03:17:29;;;;;;;5.03;3.27;;;;;;;24.26;51.33;98565.38;6097840;23;20187;-88
2022/08/01 03:19:57;;;;;;;4.60;3.30;;;;;;;24.13;51.98;98557.09;6096008;23;20565;-88
2022/08/01 03:22:25;;;;;;;4.90;3.00;;;;;;;23.92;52.28;98565.78;6071970;23;20698;-89
2022/08/01 03:24:52;;;;;;;4.03;2.80;;;;;;;23.93;52.28;98558.56;6097468;23;20149;-88
2022/08/01 03:27:21;;;;;;;4.70;2.87;;;;;;;24.05;52.02;98565.16;6097084;23;20156;-87
2022/08/01 03:29:48;;;;;;;5.27;3.13;;;;;;;24.18;51.71;98552.88;6097024;23;20148;-89
2022/08/01 03:32:16;;;;;;;4.20;2.87;;;;;;;24.14;51.71;98558.75;6097065;23;20223;-88
2022/08/01 03:34:42;;;;;;;5.07;3.10;;;;;;;24.17;51.06;98559.22;6072304;23;20156;-88
2022/08/01 03:37:25;;;;;;;4.00;2.50;;;;;;;24.01;51.37;98563.84;6071980;23;20477;-88
2022/08/01 03:39:53;;;;;;;5.80;2.93;;;;;;;24.17;51.28;98559.22;6097767;23;20172;-88
2022/08/01 03:42:23;;;;;;;4.43;2.60;;;;;;;23.97;52.01;98562.56;6096869;23;20172;-88
2022/08/01 03:44:56;;;;;;;4.83;2.87;;;;;;;24.15;50.88;98560.44;6097720;23;20182;-88
2022/08/01 03:47:29;;;;;;;3.80;2.53;;;;;;;24.18;50.62;98562.75;6097432;23;20151;-88
2022/08/01 03:49:57;;;;;;;5.60;2.93;;;;;;;24.39;50.20;98569.09;6097047;23;20177;-88
2022/08/01 03:52:25;;;;;;;4.60;2.83;;;;;;;24.47;49.82;98568.19;6097003;23;20228;-88
2022/08/01 03:54:54;;;;;;;3.83;2.33;;;;;;;24.48;49.53;98561.78;6097300;23;20175;-88
2022/08/01 03:57:20;;;;;;;3.30;2.60;;;;;;;24.47;49.77;98565.50;6096905;23;20188;-88
2022/08/01 03:59:46;;;;;;;4.60;2.90;;;;;;;24.55;49.64;98564.59;6097351;23;20153;-88
2022/08/01 04:02:14;;;;;;;3.60;2.30;;;;;;;24.56;49.80;98553.66;6071797;23;20186;-88
2022/08/01 04:04:40;;;;;;;4.37;2.40;;;;;;;24.48;49.85;98559.09;6073345;23;20184;-88
2022/08/01 04:07:21;;;;;;;4.40;2.80;;;;;;;24.43;49.54;98558.81;6098911;23;20218;-88
2022/08/01 04:09:47;;;;;;;4.37;2.90;;;;;;;24.41;50.16;98560.88;6073778;23;20152;-88
2022/08/01 04:12:12;;;;;;;5.07;2.57;;;;;;;24.17;50.43;98558.41;6098803;23;20152;-88
2022/08/01 04:14:38;;;;;;;4.17;2.47;;;;;;;23.96;50.59;98561.72;6099240;23;20153;-88
2022/08/01 04:17:04;;;;;;;3.93;2.70;;;;;;;24.09;50.40;98561.13;6098934;23;20491;-87
2022/08/01 04:19:29;;;;;;;3.37;1.90;;;;;;;24.19;50.24;98561.72;6099096;23;20156;-88
2022/08/01 04:21:56;;;;;;;5.40;2.33;;;;;;;24.16;50.23;98568.28;6099341;23;20176;-88
2022/08/01 04:24:24;;;;;;;2.63;1.60;;;;;;;24.18;49.06;98568.94;6098809;23;20160;-88
2022/08/01 04:26:52;;;;;;;2.90;2.03;;;;;;;24.13;49.07;98565.13;6098749;23;20153;-88
2022/08/01 04:29:20;;;;;;;4.47;2.57;;;;;;;24.17;48.26;98569.09;6099113;23;20149;-88
2022/08/01 04:31:48;;;;;;;3.27;2.00;;;;;;;24.16;47.12;98567.47;6098973;23;20263;-88
2022/08/01 04:34:20;;;;;;;2.93;1.90;;;;;;;24.21;47.44;98567.75;6098631;23;20243;-89
2022/08/01 04:36:47;;;;;;;4.20;1.97;;;;;;;24.35;46.74;98567.78;6099344;23;20141;-88
2022/08/01 04:39:15;;;;;;;2.83;1.70;;;;;;;24.45;47.25;98572.88;6098670;23;20149;-88
2022/08/01 04:41:41;;;;;;;4.10;1.93;;;;;;;24.64;46.32;98564.31;6098458;23;20242;-89
2022/08/01 04:44:06;;;;;;;3.10;1.70;;;;;;;24.83;46.23;98568.34;6073406;23;20633;-88
2022/08/01 04:46:34;;;;;;;3.07;1.83;;;;;;;24.98;45.67;98564.63;6098587;23;20176;-88
2022/08/01 04:49:00;;;;;;;2.90;1.83;;;;;;;24.94;45.10;98563.34;6098470;23;20148;-88
2022/08/01 04:51:26;;;;;;;2.37;1.33;;;;;;;25.08;44.92;98566.22;6098491;23;20177;-90
2022/08/01 04:53:52;;;;;;;3.63;1.70;;;;;;;25.05;44.66;98564.75;6098471;23;20653;-88
2022/08/01 04:56:18;;;;;;;5.63;1.73;;;;;;;24.97;45.38;98565.63;6098439;23;20540;-90
2022/08/01 04:58:44;;;;;;;4.13;2.00;;;;;;;25.04;45.20;98566.59;6098617;23;20152;-88
2022/08/01 05:01:10;;;;;;;2.50;1.23;;;;;;;25.15;44.41;98567.13;6098745;23;20265;-88
2022/08/01 05:03:36;;;;;;;2.10;1.37;;;;;;;25.14;44.31;98558.25;6098848;23;20152;-89
2022/08/01 05:06:02;;;;;;;2.50;1.13;;;;;;;25.31;43.72;98561.56;6099009;23;20617;-88
2022/08/01 05:08:27;;;;;;;3.23;1.40;;;;;;;25.42;44.10;98561.09;6098189;23;20148;-88
2022/08/01 05:10:53;;;;;;;5.30;1.83;;;;;;;25.52;43.38;98556.28;6099233;23;20176;-88
2022/08/01 05:13:19;;;;;;;2.53;1.47;;;;;;;25.47;43.12;98554.13;6098674;23;20231;-90
2022/08/01 05:15:45;;;;;;;2.50;1.30;;;;;;;25.59;42.68;98559.84;6098017;23;20153;-88
2022/08/01 05:18:11;;;;;;;2.97;1.67;;;;;;;25.46;42.40;98557.03;6098880;23;20148;-90
2022/08/01 05:20:36;;;;;;;2.57;1.30;;;;;;;25.54;42.35;98554.22;6098275;23;20577;-88
2022/08/01 05:23:05;;;;;;;3.23;1.20;;;;;;;25.48;41.86;98554.97;6098876;23;20163;-89
2022/08/01 05:25:31;;;;;;;2.37;1.40;;;;;;;25.48;41.73;98560.34;6098201;23;20152;-89
2022/08/01 05:27:56;;;;;;;2.20;1.20;;;;;;;25.57;42.00;98551.16;6098040;23;20153;-89
2022/08/01 05:30:22;;;;;;;2.13;1.13;;;;;;;25.69;42.05;98557.69;6072887;23;20223;-89
2022/08/01 05:32:47;;;;;;;2.00;1.10;;;;;;;25.76;42.12;98563.94;6073024;23;20164;-89
2022/08/01 05:35:13;;;;;;;4.80;1.33;;;;;;;25.91;41.46;98562.06;6098138;23;20568;-89
2022/08/01 05:37:38;;;;;;;3.73;1.43;;;;;;;26.09;41.62;98559.75;6098626;23;20156;-88
2022/08/01 05:40:05;;;;;;;2.37;1.00;;;;;;;25.90;41.42;98571.13;6098099;23;20481;-89
2022/08/01 05:42:30;;;;;;;2.60;1.50;;;;;;;25.93;41.52;98570.75;6097945;23;20496;-88
2022/08/01 05:44:56;;;;;;;3.73;1.30;;;;;;;26.13;41.45;98565.59;6097987;23;20164;-89
2022/08/01 05:47:21;;;;;;;5.40;1.33;;;;;;;25.99;41.15;98564.63;6097895;23;20476;-89
2022/08/01 05:49:47;;;;;;;1.60;1.20;;;;;;;26.04;41.02;98562.19;6098224;23;20153;-88
2022/08/01 05:52:13;;;;;;;4.23;1.30;;;;;;;26.14;41.63;98554.66;6097855;23;20253;-88
2022/08/01 05:54:38;;;;;;;4.57;1.27;;;;;;;26.38;41.27;98566.84;6097927;23;20163;-90
2022/08/01 05:57:04;;;;;;;2.27;0.93;;;;;;;26.23;40.02;98561.56;6097916;23;20180;-89
2022/08/01 05:59:35;;;;;;;2.58;1.27;;;;;;;26.30;40.92;98561.63;6072672;23;20160;-90
2022/08/01 06:02:01;;;;;;;3.17;1.20;;;;;;;26.38;39.89;98563.34;6072697;23;20553;-90
2022/08/01 06:04:26;;;;;;;1.80;1.03;;;;;;;26.23;40.17;98566.91;6097842;23;20163;-89
2022/08/01 06:06:52;;;;;;;2.20;1.13;;;;;;;26.41;40.53;98555.72;6097776;23;20179;-87
2022/08/01 06:09:17;;;;;;;1.85;1.10;;;;;;;26.50;39.93;98561.75;6097743;23;20219;-89
2022/08/01 06:11:43;;;;;;;2.40;0.93;;;;;;;26.55;39.09;98553.94;6072969;23;20505;-88
2022/08/01 06:14:08;;;;;;;1.55;0.93;;;;;;;26.67;39.41;98552.38;6097708;23;20195;-89
2022/08/01 06:16:34;;;;;;;8.90;1.13;;;;;;;27.01;38.32;98547.03;6097632;23;20152;-90
2022/08/01 06:18:59;;;;;;;2.80;1.40;;;;;;;27.07;37.90;98548.09;6097983;23;20148;-88
2022/08/01 06:21:25;;;;;;;4.72;1.60;;;;;;;27.28;36.65;98537.22;6097668;23;20148;-88
2022/08/01 06:23:50;;;;;;;2.38;1.20;;;;;;;27.44;37.87;98529.66;6097618;23;20159;-89
2022/08/01 06:26:19;;;;;;;2.78;1.30;;;;;;;27.78;37.31;98536.78;6097453;23;20176;-88
2022/08/01 06:28:45;;;;;;;1.30;0.70;;;;;;;28.00;36.78;98523.97;6097312;23;20162;-88
2022/08/01 06:31:12;;;;;;;1.63;0.95;;;;;;;27.66;35.43;98532.19;6097370;23;20204;-88
2022/08/01 06:33:37;;;;;;;2.20;0.85;;;;;;;27.74;36.63;98532.84;6097518;23;20621;-88
2022/08/01 06:36:03;;;;;;;3.03;1.58;;;;;;;27.77;35.89;98528.91;6097861;23;20196;-88
2022/08/01 06:38:29;;;;;;;1.92;1.00;;;;;;;28.04;36.15;98530.63;6098114;23;20569;-89
2022/08/01 06:40:54;;;;;;;1.20;0.80;;;;;;;28.44;35.33;98529.59;6097412;23;20164;-88
2022/08/01 06:43:22;;;;;;;1.85;0.73;;;;;;;28.79;35.14;98534.75;6098304;23;20565;-89
2022/08/01 06:45:48;;;;;;;1.23;0.73;;;;;;;28.74;34.27;98527.31;6097396;23;20561;-89
2022/08/01 06:48:14;;;;;;;2.63;0.80;;;;;;;28.58;32.50;98520.47;6097428;23;20149;-89
2022/08/01 06:50:39;;;;;;;1.90;0.90;;;;;;;28.84;32.58;98521.47;6072645;23;20200;-88
2022/08/01 06:53:11;;;;;;;1.58;0.68;;;;;;;28.96;31.00;98527.84;6072251;23;20573;-90
2022/08/01 06:55:36;;;;;;;4.63;0.88;;;;;;;28.62;32.01;98532.50;6072249;23;20160;-89
2022/08/01 06:58:02;;;;;;;2.05;0.90;;;;;;;28.93;32.08;98523.72;6097340;23;20163;-88
2022/08/01 07:00:28;;;;;;;3.80;1.27;;;;;;;29.06;31.32;98523.66;6097598;23;20156;-89
2022/08/01 07:02:59;;;;;;;5.63;0.90;;;;;;;29.09;30.77;98525.09;6097223;23;20183;-90
2022/08/01 07:05:25;;;;;;;1.23;0.60;;;;;;;29.39;30.68;98509.25;6097222;23;20157;-88
2022/08/01 07:07:57;;;;;;;1.58;0.95;;;;;;;29.23;30.46;98511.41;6097142;23;20227;-90
2022/08/01 07:10:23;;;;;;;1.80;0.73;;;;;;;29.22;30.87;98512.44;6071689;23;20297;-89
2022/08/01 07:12:48;;;;;;;3.30;0.70;;;;;;;29.39;30.68;98512.78;6072189;23;20584;-88
2022/08/01 07:15:14;;;;;;;1.42;0.68;;;;;;;29.69;30.86;98500.31;6097187;23;20573;-88
2022/08/01 07:17:43;;;;;;;1.75;0.70;;;;;;;29.58;29.10;98506.44;6097223;23;20159;-89
2022/08/01 07:20:12;;;;;;;1.58;0.68;;;;;;;29.88;30.46;98514.78;6097065;23;20159;-89
2022/08/01 07:22:38;;;;;;;1.38;0.75;;;;;;;30.00;28.87;98517.63;6097522;23;20149;-89
2022/08/01 07:25:05;;;;;;;1.45;0.70;;;;;;;30.02;29.19;98510.13;6072356;23;20227;-88
2022/08/01 07:27:31;;;;;;;1.52;0.85;;;;;;;30.12;29.32;98502.34;6097869;23;20156;-89
2022/08/01 07:29:56;;;;;;;1.40;0.70;;;;;;;30.07;29.28;98496.75;6071907;23;20156;-89
2022/08/01 07:32:22;;;;;;;3.22;0.90;;;;;;;30.19;28.75;98500.44;6097500;23;20195;-89
2022/08/01 07:34:50;;;;;;;2.83;1.00;;;;;;;30.19;29.73;98495.03;6097422;23;20168;-89
2022/08/01 07:37:16;;;;;;;1.38;0.63;;;;;;;30.42;29.20;98484.44;6097741;23;20163;-88
2022/08/01 07:39:47;;;;;;;2.40;0.77;;;;;;;30.53;29.69;98501.81;6071806;23;20498;-89
2022/08/01 07:42:13;;;;;;;3.20;0.65;;;;;;;30.65;28.18;98497.31;6097217;23;20179;-89
2022/08/01 07:44:38;;;;;;;2.97;0.90;;;;;;;30.35;28.19;98495.31;6071902;23;20156;-88
2022/08/01 07:47:05;;;;;;;1.25;0.63;;;;;;;30.55;28.50;98502.41;6097427;23;20153;-89
2022/08/01 07:49:30;;;;;;;0.95;0.60;;;;;;;30.79;28.39;98488.81;6096811;23;20502;-88
2022/08/01 07:51:56;;;;;;;3.47;0.77;;;;;;;30.86;28.44;98492.28;6096922;23;20267;-89
2022/08/01 07:54:23;;;;;;;1.33;0.80;;;;;;;31.49;28.66;98498.22;6096211;23;20235;-89
2022/08/01 07:56:51;;;;;;;1.73;0.68;;;;;;;31.68;28.26;98501.72;6071658;23;20156;-87
2022/08/01 07:59:22;;;;;;;0.95;0.65;;;;;;;31.35;27.60;98501.28;6096783;23;20211;-88
2022/08/01 08:01:52;;;;;;;1.27;0.47;;;;;;;31.40;27.42;98496.00;6096856;23;20128;-88
2022/08/01 08:04:19;;;;;;;8.88;0.85;;;;;;;31.49;27.62;98508.22;6097376;23;20212;-89
2022/08/01 08:06:47;;;;;;;1.27;0.60;;;;;;;31.43;27.89;98503.69;6097271;23;20148;-89
2022/08/01 08:09:15;;;;;;;4.95;1.05;;;;;;;31.57;27.79;98516.88;6072114;23;20156;-89
2022/08/01 08:11:43;;;;;;;1.67;0.77;;;;;;;31.64;27.54;98511.34;6095658;23;20188;-88
2022/08/01 08:14:08;;;;;;;1.40;0.75;;;;;;;31.63;27.40;98515.09;6095744;23;20633;-88
2022/08/01 08:16:40;;;;;;;1.38;0.77;;;;;;;31.86;27.53;98512.47;6071877;23;20196;-90
2022/08/01 08:19:05;;;;;;;3.90;0.90;;;;;;;31.52;27.81;98507.78;6097179;23;20152;-89
2022/08/01 08:21:38;;;;;;;2.05;1.10;;;;;;;31.69;27.68;98505.22;6096780;23;20161;-90
2022/08/01 08:27:14;;;;;;;;;;;;;;;;;;;;;
2022/08/01 08:29:42;;;;;;;3.50;0.93;;;;;;;31.72;27.26;98505.59;6092494;23;20248;-89
2022/08/01 08:32:12;;;;;;;1.00;0.60;;;;;;;31.88;26.90;98506.81;6096753;23;20632;-90
2022/08/01 08:34:38;;;;;;;1.05;0.57;;;;;;;32.12;27.63;98493.13;6094387;23;20578;-89
2022/08/01 08:37:07;;;;;;;1.95;0.75;;;;;;;32.30;26.82;98507.63;6096488;23;20178;-90
2022/08/01 08:40:16;;;;;;;1.58;0.73;;;;;;;32.05;26.85;98502.41;6096818;23;20153;-91
2022/08/01 08:43:04;;;;;;;2.63;0.80;;;;;;;31.54;27.59;98500.22;6094675;23;20618;-91
2022/08/01 08:46:01;;;;;;;1.88;0.60;;;;;;;31.79;26.83;98491.97;6054742;23;20165;-90
2022/08/01 08:48:29;;;;;;;1.67;0.70;;;;;;;31.93;27.40;98496.94;6096238;23;20146;-89
2022/08/01 08:51:00;;;;;;;2.60;0.70;;;;;;;32.16;27.34;98494.28;6096756;23;20191;-88
2022/08/01 08:53:33;;;;;;;0.95;0.50;;;;;;;32.31;27.04;98493.00;6098311;23;20151;-90
2022/08/01 08:56:01;;;;;;;3.03;0.80;;;;;;;31.91;26.88;98484.66;6098692;23;20137;-89
2022/08/01 08:58:50;;;;;;;6.10;0.88;;;;;;;31.94;27.17;98486.91;6098129;23;20159;-91
2022/08/01 09:01:18;;;;;;;4.35;0.75;;;;;;;32.05;27.09;98492.38;6097678;23;20140;-89
2022/08/01 09:03:45;;;;;;;0.85;0.38;;;;;;;32.18;27.79;98475.88;6072837;23;20152;-88
2022/08/01 09:06:21;;;;;;;1.80;0.70;;;;;;;32.59;26.89;98468.72;6097321;23;20193;-89
2022/08/01 09:08:47;;;;;;;1.10;0.70;;;;;;;32.56;26.55;98461.88;6097518;23;20136;-90
2022/08/01 09:11:50;;;;;;;6.32;1.05;;;;;;;32.64;26.38;98460.69;6098025;23;20619;-89
2022/08/01 09:14:35;;;;;;;;;;;;;;;;;;;;;
2022/08/01 09:17:13;;;;;;;1.58;0.70;;;;;;;32.63;26.09;98454.44;6098205;23;20635;-88
2022/08/01 09:19:54;;;;;;;1.58;0.70;;;;;;;32.64;25.68;98447.97;6098140;23;20608;-91
2022/08/01 09:22:33;;;;;;;1.85;0.75;;;;;;;32.73;26.97;98457.38;6072924;23;20152;-91
2022/08/01 09:25:10;;;;;;;0.80;0.40;;;;;;;32.75;26.50;98449.00;6098246;23;20133;-88
2022/08/01 09:27:38;;;;;;;2.28;0.45;;;;;;;32.91;26.65;98448.28;6073053;23;20153;-90
2022/08/01 09:30:26;;;;;;;1.05;0.50;;;;;;;32.81;26.24;98459.72;6097914;23;20148;-89
2022/08/01 09:33:02;;;;;;;1.45;0.50;;;;;;;33.16;26.33;98450.69;6072564;23;20164;-88
2022/08/01 09:35:38;;;;;;;0.90;0.40;;;;;;;33.43;25.34;98449.03;6097891;23;20150;-91
2022/08/01 09:41:47;;;;;;;2.75;0.70;;;;;;;33.30;25.87;98446.63;6078530;23;20212;-90
2022/08/01 09:45:01;;;;;;;1.88;0.77;;;;;;;33.61;25.25;98442.59;6072450;23;20175;-91
2022/08/01 09:48:10;;;;;;;;;;;;;;;;;;;;;
2022/08/01 09:50:52;;;;;;;2.58;0.63;;;;;;;33.23;25.17;98449.47;6059486;23;20263;-92
2022/08/01 09:54:24;;;;;;;1.25;0.47;;;;;;;33.62;25.77;98449.69;6097555;23;20156;-91
2022/08/01 09:56:51;;;;;;;1.50;0.60;;;;;;;33.44;26.21;98439.00;5965968;23;20163;-90
2022/08/01 09:59:21;;;;;;;1.20;0.65;;;;;;;33.69;25.65;98434.03;6097825;23;20172;-90
2022/08/01 10:01:49;;;;;;;2.97;0.68;;;;;;;33.61;25.05;98438.00;6072709;23;20478;-91
2022/08/01 10:04:28;;;;;;;1.15;0.50;;;;;;;33.97;24.83;98426.63;6072523;23;20153;-93
2022/08/01 10:07:08;;;;;;;18.00;1.05;;;;;;;33.67;25.41;98442.47;6072406;23;20474;-92
2022/08/01 10:09:49;;;;;;;;;;;;;;;;;;;;;
2022/08/01 10:12:43;;;;;;;2.33;0.90;;;;;;;33.66;24.77;98429.09;6097340;23;20232;-91
2022/08/01 10:15:24;;;;;;;1.65;0.60;;;;;;;33.60;25.50;98421.91;6098035;23;20144;-91
2022/08/01 10:17:58;;;;;;;0.90;0.50;;;;;;;33.83;25.13;98419.88;6072571;23;20156;-90
2022/08/01 10:21:14;;;;;;;1.33;0.40;;;;;;;33.95;25.07;98427.97;6097778;23;20133;-90
2022/08/01 10:24:04;;;;;;;1.50;0.82;;;;;;;34.19;25.39;98431.34;6095448;23;20203;-92
2022/08/01 10:30:09;;;;;;;1.30;0.63;;;;;;;33.55;25.20;98438.94;6055436;23;20227;-91
2022/08/01 10:32:52;;;;;;;1.67;0.90;;;;;;;33.88;26.10;98436.25;6072528;23;20152;-89
2022/08/01 10:36:18;;;;;;;0.47;0.30;;;;;;;34.16;25.01;98437.28;6097782;23;20207;-91
2022/08/01 10:38:43;;;;;;;1.42;0.40;;;;;;;33.74;24.60;98439.56;5981018;23;20171;-90
2022/08/01 10:41:15;;;;;;;1.15;0.40;;;;;;;33.81;25.46;98423.91;5981632;24;20159;-89
2022/08/01 10:44:02;;;;;;;1.38;0.50;;;;;;;33.76;25.38;98442.84;5981963;24;20171;-91
2022/08/01 10:46:50;;;;;;;0.95;0.47;;;;;;;34.28;24.57;98417.06;5982547;24;20139;-90
2022/08/01 10:49:19;;;;;;;1.08;0.63;;;;;;;34.76;25.19;98423.75;5982072;24;20148;-88
2022/08/01 10:51:46;;;;;;;0.75;0.35;;;;;;;35.12;23.95;98417.66;6054568;23;20196;-91
2022/08/01 10:54:13;;;;;;;6.30;0.40;;;;;;;34.74;24.12;98425.91;6096230;23;20203;-90
2022/08/01 10:56:50;;;;;;;0.52;0.40;;;;;;;34.92;24.50;98414.69;6096018;23;20183;-90
2022/08/01 10:59:29;;;;;;;0.47;0.25;;;;;;;34.65;23.57;98424.69;6095960;23;20163;-91
2022/08/01 11:05:25;;;;;;;2.28;0.70;;;;;;;34.33;24.93;98430.75;6063137;23;20160;-89
2022/08/01 11:08:11;;;;;;;0.90;0.60;;;;;;;34.48;24.70;98422.81;6097059;23;20155;-92
2022/08/01 11:11:04;;;;;;;1.52;0.50;;;;;;;34.71;24.66;98423.69;6072746;23;20172;-92
2022/08/01 11:14:00;;;;;;;1.00;0.50;;;;;;;34.63;24.96;98419.50;6072432;23;20191;-91
2022/08/01 11:16:42;;;;;;;1.08;0.40;;;;;;;35.18;25.23;98417.50;6073045;23;20568;-89
2022/08/01 11:19:10;;;;;;;0.82;0.40;;;;;;;35.38;23.15;98410.63;6098043;23;20541;-92
2022/08/01 11:22:04;;;;;;;3.83;0.60;;;;;;;35.74;23.88;98410.72;6072462;23;20533;-92
2022/08/01 11:25:09;;;;;;;2.72;1.40;;;;;;;35.52;24.22;98406.38;6072348;23;20156;-92
2022/08/01 11:27:37;;;;;;;1.08;0.65;;;;;;;35.58;23.81;98411.66;6098035;23;20137;-91
2022/08/01 11:34:12;;;;;;;0.70;0.35;;;;;;;35.67;24.11;98399.19;6097458;23;20186;-93
2022/08/01 11:37:44;;;;;;;;;;;;;;;;;;;;;
2022/08/01 11:40:16;;;;;;;0.93;0.52;;;;;;;35.57;23.95;98388.19;6097624;23;20628;-93
2022/08/01 11:43:20;;;;;;;0.63;0.38;;;;;;;35.60;24.26;98392.31;6097003;23;20192;-92
2022/08/01 11:45:52;;;;;;;1.88;0.60;;;;;;;35.78;24.00;98392.75;6072251;23;20160;-92
2022/08/01 11:51:40;;;;;;;0.95;0.40;;;;;;;36.07;23.67;98397.88;6097125;23;20188;-95
2022/08/01 11:54:24;;;;;;;2.20;0.60;;;;;;;36.11;23.65;98388.91;6072225;23;20222;-94
2022/08/01 11:57:54;;;;;;;1.40;0.68;;;;;;;36.58;22.95;98394.41;6072287;23;20228;-92
2022/08/01 12:00:25;;;;;;;1.15;0.50;;;;;;;36.53;23.59;98390.84;5967015;24;20171;-92
2022/08/01 12:03:04;;;;;;;4.22;0.60;;;;;;;36.52;23.34;98394.66;5982036;24;20139;-92
2022/08/01 12:05:47;;;;;;;1.45;0.68;;;;;;;36.71;22.86;98379.44;5981246;24;20159;-95
2022/08/01 12:08:54;;;;;;;1.33;0.65;;;;;;;36.10;22.86;98391.91;5982221;24;20158;-94
2022/08/01 12:11:19;;;;;;;4.22;0.45;;;;;;;35.54;23.55;98385.16;5958380;24;20516;-91
2022/08/01 12:13:46;;;;;;;0.63;0.40;;;;;;;35.58;24.21;98378.13;5981752;24;20219;-92
2022/08/01 12:16:53;;;;;;;1.55;0.70;;;;;;;35.84;23.37;98373.69;5981744;24;20183;-94
2022/08/01 12:19:24;;;;;;;2.63;0.70;;;;;;;35.98;23.25;98380.34;5982412;24;20147;-93
2022/08/01 12:22:25;;;;;;;2.17;0.52;;;;;;;35.77;23.72;98388.34;5957712;24;20174;-91